Terminal Aerodrome Forecast
Issued by NWS Wilmington, OH

Current Version | Previous Version | Graphics & Text | Print | Product List | Glossary On
Versions: 1 2 3 4 5 6 7 8 9 10 11 12 13 14 15 16 17 18 19 20 21 22 23 24
000
FTUS41 KILN 251100
TAFCMH
TAF
KCMH 251139Z 2512/2612 17006KT P6SM BKN035 OVC100
     FM251600 09007KT 3SM -RA OVC025
     FM252200 08009KT 1SM -SN OVC012
     FM260000 04010G18KT 1SM -SN OVC009
      TEMPO 2600/2603 1/2SM SN
     FM260300 02013G21KT 2SM -SN OVC015
     FM260800 36013G21KT 3SM -SN OVC015=

USA.gov is the U.S. government's official web portal to all federal, state and local government web resources and services.